sensor_id;sensor_type;location;lat;lon;timestamp;pressure;altitude;pressure_sealevel;temperature;humidity
49451;BME280;35336;48.400;10.886;2023-09-18T00:00:07;95828.53;;;17.43;94.56
49451;BME280;35336;48.400;10.886;2023-09-18T00:00:23;95837.16;;;17.45;94.64
49451;BME280;35336;48.400;10.886;2023-09-18T00:00:38;95836.91;;;17.47;94.79
49451;BME280;35336;48.400;10.886;2023-09-18T00:00:54;95832.81;;;17.44;94.94
49451;BME280;35336;48.400;10.886;2023-09-18T00:01:09;95827.13;;;17.41;95.18
49451;BME280;35336;48.400;10.886;2023-09-18T00:01:26;95827.69;;;17.43;95.33
49451;BME280;35336;48.400;10.886;2023-09-18T00:01:42;95826.13;;;17.47;95.29
49451;BME280;35336;48.400;10.886;2023-09-18T00:01:57;95838.03;;;17.51;95.21
49451;BME280;35336;48.400;10.886;2023-09-18T00:02:12;95833.41;;;17.46;94.62
49451;BME280;35336;48.400;10.886;2023-09-18T00:02:30;95827.19;;;17.46;94.75
49451;BME280;35336;48.400;10.886;2023-09-18T00:02:45;95827.19;;;17.46;94.59
49451;BME280;35336;48.400;10.886;2023-09-18T00:03:01;95823.44;;;17.47;94.83
49451;BME280;35336;48.400;10.886;2023-09-18T00:03:19;95835.34;;;17.51;94.50
49451;BME280;35336;48.400;10.886;2023-09-18T00:03:37;95835.59;;;17.50;94.38
49451;BME280;35336;48.400;10.886;2023-09-18T00:03:54;95833.41;;;17.46;94.13
49451;BME280;35336;48.400;10.886;2023-09-18T00:04:10;95823.13;;;17.43;94.30
49451;BME280;35336;48.400;10.886;2023-09-18T00:04:25;95822.81;;;17.40;94.40
49451;BME280;35336;48.400;10.886;2023-09-18T00:04:40;95827.19;;;17.46;94.34
49451;BME280;35336;48.400;10.886;2023-09-18T00:04:56;95821.44;;;17.37;94.14
49451;BME280;35336;48.400;10.886;2023-09-18T00:05:16;95836.91;;;17.47;94.41
49451;BME280;35336;48.400;10.886;2023-09-18T00:05:33;95814.44;;;17.36;94.29
49451;BME280;35336;48.400;10.886;2023-09-18T00:05:51;95808.75;;;17.33;94.23
49451;BME280;35336;48.400;10.886;2023-09-18T00:06:07;95823.38;;;17.42;94.48
49451;BME280;35336;48.400;10.886;2023-09-18T00:06:22;95842.63;;;17.51;94.47
49451;BME280;35336;48.400;10.886;2023-09-18T00:06:37;95820.44;;;17.43;94.60
49451;BME280;35336;48.400;10.886;2023-09-18T00:06:53;95824.50;;;17.46;94.48
49451;BME280;35336;48.400;10.886;2023-09-18T00:07:10;95815.25;;;17.37;94.56
49451;BME280;35336;48.400;10.886;2023-09-18T00:07:26;95831.28;;;17.49;94.45
49451;BME280;35336;48.400;10.886;2023-09-18T00:07:42;95833.97;;;17.49;94.28
49451;BME280;35336;48.400;10.886;2023-09-18T00:08:00;95821.81;;;17.46;94.43
49451;BME280;35336;48.400;10.886;2023-09-18T00:08:18;95828.53;;;17.43;94.29
49451;BME280;35336;48.400;10.886;2023-09-18T00:08:38;95829.16;;;17.51;94.12
49451;BME280;35336;48.400;10.886;2023-09-18T00:08:56;95835.91;;;17.53;94.08
49451;BME280;35336;48.400;10.886;2023-09-18T00:09:11;95819.13;;;17.46;94.13
49451;BME280;35336;48.400;10.886;2023-09-18T00:09:29;95827.50;;;17.50;93.94
49451;BME280;35336;48.400;10.886;2023-09-18T00:09:46;95827.50;;;17.50;93.88
49451;BME280;35336;48.400;10.886;2023-09-18T00:10:02;95840.78;;;17.56;93.88
49451;BME280;35336;48.400;10.886;2023-09-18T00:10:17;95830.25;;;17.55;93.77
49451;BME280;35336;48.400;10.886;2023-09-18T00:10:33;95830.75;;;17.52;93.79
49451;BME280;35336;48.400;10.886;2023-09-18T00:10:53;95832.38;;;17.53;93.56
49451;BME280;35336;48.400;10.886;2023-09-18T00:11:09;95834.28;;;17.52;93.77
49451;BME280;35336;48.400;10.886;2023-09-18T00:11:24;95836.44;;;17.55;93.79
49451;BME280;35336;48.400;10.886;2023-09-18T00:11:42;95835.66;;;17.55;93.72
49451;BME280;35336;48.400;10.886;2023-09-18T00:11:59;95829.69;;;17.53;93.53
49451;BME280;35336;48.400;10.886;2023-09-18T00:12:15;95825.13;;;17.53;93.15
49451;BME280;35336;48.400;10.886;2023-09-18T00:12:30;95821.25;;;17.44;93.11
49451;BME280;35336;48.400;10.886;2023-09-18T00:12:45;95819.44;;;17.50;93.16
49451;BME280;35336;48.400;10.886;2023-09-18T00:13:01;95832.38;;;17.53;93.20
49451;BME280;35336;48.400;10.886;2023-09-18T00:13:18;95829.38;;;17.49;93.12
49451;BME280;35336;48.400;10.886;2023-09-18T00:13:34;95826.19;;;17.52;93.11
49451;BME280;35336;48.400;10.886;2023-09-18T00:13:49;95829.19;;;17.56;93.15
49451;BME280;35336;48.400;10.886;2023-09-18T00:14:04;95825.94;;;17.54;93.06
49451;BME280;35336;48.400;10.886;2023-09-18T00:14:23;95829.69;;;17.53;92.64
49451;BME280;35336;48.400;10.886;2023-09-18T00:14:40;95827.56;;;17.55;92.71
49451;BME280;35336;48.400;10.886;2023-09-18T00:14:55;95815.09;;;17.49;92.72
49451;BME280;35336;48.400;10.886;2023-09-18T00:15:11;95823.75;;;17.51;92.63
49451;BME280;35336;48.400;10.886;2023-09-18T00:15:26;95831.31;;;17.54;92.58
49451;BME280;35336;48.400;10.886;2023-09-18T00:15:44;95819.97;;;17.52;92.44
49451;BME280;35336;48.400;10.886;2023-09-18T00:16:00;95816.66;;;17.44;92.37
49451;BME280;35336;48.400;10.886;2023-09-18T00:16:18;95820.19;;;17.45;92.64
49451;BME280;35336;48.400;10.886;2023-09-18T00:16:33;95824.25;;;17.48;92.55
49451;BME280;35336;48.400;10.886;2023-09-18T00:16:56;95820.97;;;17.45;92.83
49451;BME280;35336;48.400;10.886;2023-09-18T00:17:13;95826.94;;;17.48;92.91
49451;BME280;35336;48.400;10.886;2023-09-18T00:17:28;95804.47;;;17.37;92.93
49451;BME280;35336;48.400;10.886;2023-09-18T00:17:46;95805.53;;;17.36;92.81
49451;BME280;35336;48.400;10.886;2023-09-18T00:18:01;95834.22;;;17.47;92.94
49451;BME280;35336;48.400;10.886;2023-09-18T00:18:17;95829.63;;;17.48;93.08
49451;BME280;35336;48.400;10.886;2023-09-18T00:18:32;95818.53;;;17.44;93.07
49451;BME280;35336;48.400;10.886;2023-09-18T00:18:50;95817.19;;;17.41;93.04
49451;BME280;35336;48.400;10.886;2023-09-18T00:19:05;95821.56;;;17.48;93.15
49451;BME280;35336;48.400;10.886;2023-09-18T00:19:24;95798.50;;;17.35;93.32
49451;BME280;35336;48.400;10.886;2023-09-18T00:19:41;95819.34;;;17.44;93.56
49451;BME280;35336;48.400;10.886;2023-09-18T00:19:57;95821.06;;;17.51;93.69
49451;BME280;35336;48.400;10.886;2023-09-18T00:20:12;95804.81;;;17.45;93.88
49451;BME280;35336;48.400;10.886;2023-09-18T00:20:27;95817.28;;;17.52;93.85
49451;BME280;35336;48.400;10.886;2023-09-18T00:20:43;95826.19;;;17.52;93.60
49451;BME280;35336;48.400;10.886;2023-09-18T00:20:59;95803.13;;;17.39;93.30
49451;BME280;35336;48.400;10.886;2023-09-18T00:21:14;95816.72;;;17.50;93.38
49451;BME280;35336;48.400;10.886;2023-09-18T00:21:36;95826.19;;;17.52;93.41
49451;BME280;35336;48.400;10.886;2023-09-18T00:21:51;95823.75;;;17.51;93.47
49451;BME280;35336;48.400;10.886;2023-09-18T00:22:07;95813.78;;;17.51;93.35
49451;BME280;35336;48.400;10.886;2023-09-18T00:22:25;95810.28;;;17.51;93.13
49451;BME280;35336;48.400;10.886;2023-09-18T00:22:40;95817.56;;;17.55;93.44
49451;BME280;35336;48.400;10.886;2023-09-18T00:22:58;95812.72;;;17.52;93.44
49451;BME280;35336;48.400;10.886;2023-09-18T00:23:13;95817.56;;;17.55;93.50
49451;BME280;35336;48.400;10.886;2023-09-18T00:23:31;95822.44;;;17.53;93.73
49451;BME280;35336;48.400;10.886;2023-09-18T00:23:46;95815.66;;;17.51;93.80
49451;BME280;35336;48.400;10.886;2023-09-18T00:24:02;95816.16;;;17.48;94.07
49451;BME280;35336;48.400;10.886;2023-09-18T00:24:18;95817.03;;;17.53;93.79
49451;BME280;35336;48.400;10.886;2023-09-18T00:24:35;95816.22;;;17.53;93.55
49451;BME280;35336;48.400;10.886;2023-09-18T00:24:51;95805.66;;;17.46;93.31
49451;BME280;35336;48.400;10.886;2023-09-18T00:25:06;95796.69;;;17.40;93.62
49451;BME280;35336;48.400;10.886;2023-09-18T00:25:22;95787.81;;;17.40;93.61
49451;BME280;35336;48.400;10.886;2023-09-18T00:25:37;95806.75;;;17.50;93.67
49451;BME280;35336;48.400;10.886;2023-09-18T00:25:57;95809.19;;;17.52;93.73
49451;BME280;35336;48.400;10.886;2023-09-18T00:26:16;95806.44;;;17.46;93.55
49451;BME280;35336;48.400;10.886;2023-09-18T00:26:31;95810.28;;;17.51;93.47
49451;BME280;35336;48.400;10.886;2023-09-18T00:26:49;95814.09;;;17.55;93.54
49451;BME280;35336;48.400;10.886;2023-09-18T00:27:04;95808.66;;;17.50;93.38
49451;BME280;35336;48.400;10.886;2023-09-18T00:27:24;95811.88;;;17.52;93.56
49451;BME280;35336;48.400;10.886;2023-09-18T00:27:40;95807.50;;;17.45;93.69
49451;BME280;35336;48.400;10.886;2023-09-18T00:27:55;95817.53;;;17.50;93.91
49451;BME280;35336;48.400;10.886;2023-09-18T00:28:10;95798.50;;;17.35;94.00
49451;BME280;35336;48.400;10.886;2023-09-18T00:28:26;95793.38;;;17.33;94.34
49451;BME280;35336;48.400;10.886;2023-09-18T00:28:43;95805.81;;;17.39;94.46
49451;BME280;35336;48.400;10.886;2023-09-18T00:28:59;95803.69;;;17.41;94.62
49451;BME280;35336;48.400;10.886;2023-09-18T00:29:16;95803.13;;;17.39;94.67
49451;BME280;35336;48.400;10.886;2023-09-18T00:29:31;95795.06;;;17.39;94.71
49451;BME280;35336;48.400;10.886;2023-09-18T00:29:47;95800.75;;;17.43;94.61
49451;BME280;35336;48.400;10.886;2023-09-18T00:30:08;95806.44;;;17.46;94.52
49451;BME280;35336;48.400;10.886;2023-09-18T00:30:24;95809.66;;;17.43;94.48
49451;BME280;35336;48.400;10.886;2023-09-18T00:30:46;95802.88;;;17.41;94.45
49451;BME280;35336;48.400;10.886;2023-09-18T00:31:02;95805.56;;;17.41;94.48
49451;BME280;35336;48.400;10.886;2023-09-18T00:31:18;95802.88;;;17.41;94.59
49451;BME280;35336;48.400;10.886;2023-09-18T00:31:34;95798.00;;;17.38;94.48
49451;BME280;35336;48.400;10.886;2023-09-18T00:31:49;95812.09;;;17.45;94.52
49451;BME280;35336;48.400;10.886;2023-09-18T00:32:05;95805.03;;;17.39;94.45
49451;BME280;35336;48.400;10.886;2023-09-18T00:32:23;95796.88;;;17.34;94.70
49451;BME280;35336;48.400;10.886;2023-09-18T00:32:38;95809.59;;;17.38;94.97
49451;BME280;35336;48.400;10.886;2023-09-18T00:32:55;95806.09;;;17.38;95.08
49451;BME280;35336;48.400;10.886;2023-09-18T00:33:13;95797.69;;;17.34;94.95
49451;BME280;35336;48.400;10.886;2023-09-18T00:33:34;95805.03;;;17.39;94.79
49451;BME280;35336;48.400;10.886;2023-09-18T00:33:49;95809.59;;;17.38;94.53
49451;BME280;35336;48.400;10.886;2023-09-18T00:34:05;95812.06;;;17.40;94.52
49451;BME280;35336;48.400;10.886;2023-09-18T00:34:22;95811.22;;;17.39;94.57
49451;BME280;35336;48.400;10.886;2023-09-18T00:34:40;95806.34;;;17.36;94.37
49451;BME280;35336;48.400;10.886;2023-09-18T00:34:55;95798.72;;;17.28;94.48
49451;BME280;35336;48.400;10.886;2023-09-18T00:35:13;95804.91;;;17.28;94.60
49451;BME280;35336;48.400;10.886;2023-09-18T00:35:28;95796.81;;;17.28;94.84
49451;BME280;35336;48.400;10.886;2023-09-18T00:35:50;95799.56;;;17.34;95.08
49451;BME280;35336;48.400;10.886;2023-09-18T00:36:05;95802.03;;;17.35;94.90
49451;BME280;35336;48.400;10.886;2023-09-18T00:36:21;95795.75;;;17.29;94.87
49451;BME280;35336;48.400;10.886;2023-09-18T00:36:39;95804.72;;;17.35;94.71
49451;BME280;35336;48.400;10.886;2023-09-18T00:36:56;95800.88;;;17.31;94.74
49451;BME280;35336;48.400;10.886;2023-09-18T00:37:14;95804.16;;;17.33;94.63
49451;BME280;35336;48.400;10.886;2023-09-18T00:37:32;95804.94;;;17.34;94.34
49451;BME280;35336;48.400;10.886;2023-09-18T00:37:47;95800.34;;;17.29;94.43
49451;BME280;35336;48.400;10.886;2023-09-18T00:38:02;95790.06;;;17.26;94.40
49451;BME280;35336;48.400;10.886;2023-09-18T00:38:21;95813.59;;;17.36;94.43
49451;BME280;35336;48.400;10.886;2023-09-18T00:38:41;95808.97;;;17.31;94.91
49451;BME280;35336;48.400;10.886;2023-09-18T00:39:01;95806.22;;;17.26;95.26
49451;BME280;35336;48.400;10.886;2023-09-18T00:39:16;95811.63;;;17.26;95.65
49451;BME280;35336;48.400;10.886;2023-09-18T00:39:36;95806.47;;;17.24;95.76
49451;BME280;35336;48.400;10.886;2023-09-18T00:39:51;95807.03;;;17.26;95.83
49451;BME280;35336;48.400;10.886;2023-09-18T00:40:07;95810.28;;;17.28;95.48
49451;BME280;35336;48.400;10.886;2023-09-18T00:40:22;95807.84;;;17.27;95.57
49451;BME280;35336;48.400;10.886;2023-09-18T00:40:38;95808.44;;;17.29;95.55
49451;BME280;35336;48.400;10.886;2023-09-18T00:40:53;95800.25;;;17.24;95.33
49451;BME280;35336;48.400;10.886;2023-09-18T00:41:11;95801.31;;;17.23;95.16
49451;BME280;35336;48.400;10.886;2023-09-18T00:41:26;95812.41;;;17.26;95.15
49451;BME280;35336;48.400;10.886;2023-09-18T00:41:41;95813.56;;;17.30;94.96
49451;BME280;35336;48.400;10.886;2023-09-18T00:41:57;95800.84;;;17.26;94.85
49451;BME280;35336;48.400;10.886;2023-09-18T00:42:14;95815.41;;;17.30;94.77
49451;BME280;35336;48.400;10.886;2023-09-18T00:42:29;95798.91;;;17.21;94.63
49451;BME280;35336;48.400;10.886;2023-09-18T00:42:45;95806.22;;;17.26;94.77
49451;BME280;35336;48.400;10.886;2023-09-18T00:43:02;95805.16;;;17.27;94.86
49451;BME280;35336;48.400;10.886;2023-09-18T00:43:18;95815.19;;;17.32;94.75
49451;BME280;35336;48.400;10.886;2023-09-18T00:43:36;95811.44;;;17.33;94.87
49451;BME280;35336;48.400;10.886;2023-09-18T00:43:54;95802.47;;;17.27;94.58
49451;BME280;35336;48.400;10.886;2023-09-18T00:44:14;95807.66;;;17.34;94.53
49451;BME280;35336;48.400;10.886;2023-09-18T00:44:29;95798.16;;;17.26;94.43
49451;BME280;35336;48.400;10.886;2023-09-18T00:44:47;95805.97;;;17.27;94.58
49451;BME280;35336;48.400;10.886;2023-09-18T00:45:02;95801.16;;;17.29;94.69
49451;BME280;35336;48.400;10.886;2023-09-18T00:45:20;95799.97;;;17.20;94.68
49451;BME280;35336;48.400;10.886;2023-09-18T00:45:45;95800.25;;;17.24;94.63
49451;BME280;35336;48.400;10.886;2023-09-18T00:46:03;95809.50;;;17.28;94.45
49451;BME280;35336;48.400;10.886;2023-09-18T00:46:18;95783.75;;;17.15;94.43
49451;BME280;35336;48.400;10.886;2023-09-18T00:46:34;95798.94;;;17.26;94.43
49451;BME280;35336;48.400;10.886;2023-09-18T00:46:51;95796.50;;;17.25;94.51
49451;BME280;35336;48.400;10.886;2023-09-18T00:47:07;95797.56;;;17.24;94.30
49451;BME280;35336;48.400;10.886;2023-09-18T00:47:23;95806.47;;;17.24;94.23
49451;BME280;35336;48.400;10.886;2023-09-18T00:47:41;95813.81;;;17.29;94.40
49451;BME280;35336;48.400;10.886;2023-09-18T00:47:59;95801.31;;;17.23;94.32
49451;BME280;35336;48.400;10.886;2023-09-18T00:48:18;95811.34;;;17.27;94.46
49451;BME280;35336;48.400;10.886;2023-09-18T00:48:34;95792.41;;;17.17;94.32
49451;BME280;35336;48.400;10.886;2023-09-18T00:48:52;95804.03;;;17.23;94.32
49451;BME280;35336;48.400;10.886;2023-09-18T00:49:08;95799.41;;;17.18;94.10
49451;BME280;35336;48.400;10.886;2023-09-18T00:49:26;95787.75;;;17.12;94.61
49451;BME280;35336;48.400;10.886;2023-09-18T00:49:44;95800.22;;;17.19;94.40
49451;BME280;35336;48.400;10.886;2023-09-18T00:50:05;95796.72;;;17.18;94.66
49451;BME280;35336;48.400;10.886;2023-09-18T00:50:25;95790.75;;;17.16;94.61
49451;BME280;35336;48.400;10.886;2023-09-18T00:50:46;95806.47;;;17.24;94.42
49451;BME280;35336;48.400;10.886;2023-09-18T00:51:04;95806.19;;;17.21;94.54
49451;BME280;35336;48.400;10.886;2023-09-18T00:51:19;95800.22;;;17.19;94.40
49451;BME280;35336;48.400;10.886;2023-09-18T00:51:39;95808.88;;;17.21;95.10
49451;BME280;35336;48.400;10.886;2023-09-18T00:51:59;95787.13;;;17.05;95.24
49451;BME280;35336;48.400;10.886;2023-09-18T00:52:15;95806.66;;;17.18;95.41
49451;BME280;35336;48.400;10.886;2023-09-18T00:52:32;95802.09;;;17.18;95.45
49451;BME280;35336;48.400;10.886;2023-09-18T00:52:48;95799.91;;;17.15;95.90
49451;BME280;35336;48.400;10.886;2023-09-18T00:53:07;95808.88;;;17.21;96.25
49451;BME280;35336;48.400;10.886;2023-09-18T00:53:24;95801.03;;;17.19;96.27
49451;BME280;35336;48.400;10.886;2023-09-18T00:53:43;95801.53;;;17.16;96.18
49451;BME280;35336;48.400;10.886;2023-09-18T00:54:00;95805.59;;;17.19;95.92
49451;BME280;35336;48.400;10.886;2023-09-18T00:54:18;95802.34;;;17.17;95.69
49451;BME280;35336;48.400;10.886;2023-09-18T00:54:35;95801.84;;;17.20;95.47
49451;BME280;35336;48.400;10.886;2023-09-18T00:54:51;95791.56;;;17.17;95.15
49451;BME280;35336;48.400;10.886;2023-09-18T00:55:10;95789.13;;;17.15;94.88
49451;BME280;35336;48.400;10.886;2023-09-18T00:55:30;95793.47;;;17.16;94.85
49451;BME280;35336;48.400;10.886;2023-09-18T00:55:48;95797.84;;;17.22;94.74
49451;BME280;35336;48.400;10.886;2023-09-18T00:56:04;95791.66;;;17.22;94.65
49451;BME280;35336;48.400;10.886;2023-09-18T00:56:19;95797.56;;;17.24;94.67
49451;BME280;35336;48.400;10.886;2023-09-18T00:56:37;95800.25;;;17.24;94.74
49451;BME280;35336;48.400;10.886;2023-09-18T00:56:55;95794.34;;;17.22;94.96
49451;BME280;35336;48.400;10.886;2023-09-18T00:57:11;95788.63;;;17.18;94.81
49451;BME280;35336;48.400;10.886;2023-09-18T00:57:26;95801.31;;;17.23;94.67
49451;BME280;35336;48.400;10.886;2023-09-18T00:57:42;95798.91;;;17.21;94.70
49451;BME280;35336;48.400;10.886;2023-09-18T00:57:57;95801.31;;;17.23;94.34
49451;BME280;35336;48.400;10.886;2023-09-18T00:58:13;95786.44;;;17.15;94.21
49451;BME280;35336;48.400;10.886;2023-09-18T00:58:29;95796.16;;;17.16;94.31
49451;BME280;35336;48.400;10.886;2023-09-18T00:58:49;95791.00;;;17.14;94.82
49451;BME280;35336;48.400;10.886;2023-09-18T00:59:06;95789.88;;;17.10;95.18
49451;BME280;35336;48.400;10.886;2023-09-18T00:59:22;95792.09;;;17.13;95.39
49451;BME280;35336;48.400;10.886;2023-09-18T00:59:38;95789.38;;;17.13;95.33
49451;BME280;35336;48.400;10.886;2023-09-18T00:59:56;95800.47;;;17.17;95.40
49451;BME280;35336;48.400;10.886;2023-09-18T01:00:12;95789.88;;;17.10;95.48
49451;BME280;35336;48.400;10.886;2023-09-18T01:00:30;95792.09;;;17.13;95.34
49451;BME280;35336;48.400;10.886;2023-09-18T01:00:45;95800.47;;;17.17;95.31
49451;BME280;35336;48.400;10.886;2023-09-18T01:01:01;95798.84;;;17.16;95.06
49451;BME280;35336;48.400;10.886;2023-09-18T01:01:17;95797.47;;;17.13;94.88
49451;BME280;35336;48.400;10.886;2023-09-18T01:01:33;95797.47;;;17.13;94.79
49451;BME280;35336;48.400;10.886;2023-09-18T01:01:56;95789.09;;;17.10;94.77
49451;BME280;35336;48.400;10.886;2023-09-18T01:02:11;95805.03;;;17.17;94.87
49451;BME280;35336;48.400;10.886;2023-09-18T01:02:29;95804.22;;;17.16;95.07
49451;BME280;35336;48.400;10.886;2023-09-18T01:02:51;95806.41;;;17.19;95.32
49451;BME280;35336;48.400;10.886;2023-09-18T01:03:07;95791.56;;;17.17;95.14
49451;BME280;35336;48.400;10.886;2023-09-18T01:03:24;95788.56;;;17.13;95.27
49451;BME280;35336;48.400;10.886;2023-09-18T01:03:40;95799.41;;;17.18;95.10
49451;BME280;35336;48.400;10.886;2023-09-18T01:03:56;95787.44;;;17.09;95.04
49451;BME280;35336;48.400;10.886;2023-09-18T01:04:12;95798.75;;;17.11;94.85
49451;BME280;35336;48.400;10.886;2023-09-18T01:04:28;95788.81;;;17.11;95.02
49451;BME280;35336;48.400;10.886;2023-09-18T01:04:44;95806.94;;;17.16;94.97
49451;BME280;35336;48.400;10.886;2023-09-18T01:05:00;95792.00;;;17.08;94.96
49451;BME280;35336;48.400;10.886;2023-09-18T01:05:16;95795.00;;;17.12;94.94
49451;BME280;35336;48.400;10.886;2023-09-18T01:05:34;95789.84;;;17.05;95.18
49451;BME280;35336;48.400;10.886;2023-09-18T01:05:51;95809.03;;;17.14;95.18
49451;BME280;35336;48.400;10.886;2023-09-18T01:06:06;95807.09;;;17.09;95.31
49451;BME280;35336;48.400;10.886;2023-09-18T01:06:24;95805.25;;;17.10;95.29
49451;BME280;35336;48.400;10.886;2023-09-18T01:06:40;95804.66;;;17.08;95.34
49451;BME280;35336;48.400;10.886;2023-09-18T01:06:55;95794.69;;;17.08;95.52
49451;BME280;35336;48.400;10.886;2023-09-18T01:07:11;95796.84;;;17.06;95.50
49451;BME280;35336;48.400;10.886;2023-09-18T01:07:26;95789.25;;;17.03;95.44
49451;BME280;35336;48.400;10.886;2023-09-18T01:07:42;95807.69;;;17.11;95.56
49451;BME280;35336;48.400;10.886;2023-09-18T01:07:59;95804.34;;;17.04;95.70
49451;BME280;35336;48.400;10.886;2023-09-18T01:08:17;95790.25;;;16.97;96.00
49451;BME280;35336;48.400;10.886;2023-09-18T01:08:32;95791.91;;;16.98;96.01
49451;BME280;35336;48.400;10.886;2023-09-18T01:08:49;95791.91;;;16.98;95.87
49451;BME280;35336;48.400;10.886;2023-09-18T01:09:07;95795.69;;;17.02;96.05
49451;BME280;35336;48.400;10.886;2023-09-18T01:09:22;95799.72;;;16.99;96.26
49451;BME280;35336;48.400;10.886;2023-09-18T01:09:38;95799.47;;;17.01;95.87
49451;BME280;35336;48.400;10.886;2023-09-18T01:09:56;95788.06;;;16.94;96.12
49451;BME280;35336;48.400;10.886;2023-09-18T01:10:11;95792.97;;;16.97;96.28
49451;BME280;35336;48.400;10.886;2023-09-18T01:10:33;95799.97;;;16.98;96.21
49451;BME280;35336;48.400;10.886;2023-09-18T01:11:10;95802.91;;;16.96;96.29
49451;BME280;35336;48.400;10.886;2023-09-18T01:12:23;95795.56;;;16.92;96.26
49451;BME280;35336;48.400;10.886;2023-09-18T01:13:04;95798.25;;;16.92;96.24
49451;BME280;35336;48.400;10.886;2023-09-18T01:13:29;95800.94;;;16.92;96.29
49451;BME280;35336;48.400;10.886;2023-09-18T01:13:55;95799.31;;;16.91;96.33
49451;BME280;35336;48.400;10.886;2023-09-18T01:14:39;95793.94;;;16.91;96.02
49451;BME280;35336;48.400;10.886;2023-09-18T01:15:22;95795.56;;;16.92;95.85
49451;BME280;35336;48.400;10.886;2023-09-18T01:15:44;95782.00;;;16.87;95.76
49451;BME280;35336;48.400;10.886;2023-09-18T01:16:10;95803.72;;;16.97;95.68
49451;BME280;35336;48.400;10.886;2023-09-18T01:16:40;95798.03;;;16.93;95.41
49451;BME280;35336;48.400;10.886;2023-09-18T01:16:58;95799.66;;;16.94;95.69
49451;BME280;35336;48.400;10.886;2023-09-18T01:17:14;95789.13;;;16.93;95.50
49451;BME280;35336;48.400;10.886;2023-09-18T01:17:34;95792.38;;;16.95;95.49
49451;BME280;35336;48.400;10.886;2023-09-18T01:17:50;95790.75;;;16.94;95.54
49451;BME280;35336;48.400;10.886;2023-09-18T01:18:08;95797.50;;;16.96;95.55
49451;BME280;35336;48.400;10.886;2023-09-18T01:18:26;95792.38;;;16.95;95.40
49451;BME280;35336;48.400;10.886;2023-09-18T01:18:50;95789.13;;;16.93;95.30
49451;BME280;35336;48.400;10.886;2023-09-18T01:19:05;95787.00;;;16.95;95.14
49451;BME280;35336;48.400;10.886;2023-09-18T01:19:40;95779.59;;;16.85;95.46
49451;BME280;35336;48.400;10.886;2023-09-18T01:19:55;95780.69;;;16.89;95.55
49451;BME280;35336;48.400;10.886;2023-09-18T01:20:13;95792.38;;;16.95;95.76
49451;BME280;35336;48.400;10.886;2023-09-18T01:20:30;95783.16;;;16.91;95.68
49451;BME280;35336;48.400;10.886;2023-09-18T01:20:48;95781.78;;;16.88;95.53
49451;BME280;35336;48.400;10.886;2023-09-18T01:21:05;95787.84;;;16.95;96.14
49451;BME280;35336;48.400;10.886;2023-09-18T01:21:23;95788.06;;;16.94;95.80
49451;BME280;35336;48.400;10.886;2023-09-18T01:21:41;95772.88;;;16.88;95.71
49451;BME280;35336;48.400;10.886;2023-09-18T01:21:58;95759.06;;;16.79;95.68
49451;BME280;35336;48.400;10.886;2023-09-18T01:22:15;95783.25;;;16.96;95.36
49451;BME280;35336;48.400;10.886;2023-09-18T01:22:31;95778.84;;;16.90;95.17
49451;BME280;35336;48.400;10.886;2023-09-18T01:22:49;95774.03;;;16.92;94.91
49451;BME280;35336;48.400;10.886;2023-09-18T01:23:04;95776.22;;;16.95;94.87
49451;BME280;35336;48.400;10.886;2023-09-18T01:23:19;95782.09;;;16.92;94.91
49451;BME280;35336;48.400;10.886;2023-09-18T01:23:37;95775.31;;;16.89;95.21
49451;BME280;35336;48.400;10.886;2023-09-18T01:23:55;95773.78;;;16.93;95.51
49451;BME280;35336;48.400;10.886;2023-09-18T01:24:10;95770.75;;;16.90;95.41
49451;BME280;35336;48.400;10.886;2023-09-18T01:24:25;95771.69;;;16.95;94.98
49451;BME280;35336;48.400;10.886;2023-09-18T01:24:43;95752.03;;;16.78;94.96
49451;BME280;35336;48.400;10.886;2023-09-18T01:24:59;95765.13;;;16.91;95.38
49451;BME280;35336;48.400;10.886;2023-09-18T01:25:16;95772.97;;;16.93;95.49
49451;BME280;35336;48.400;10.886;2023-09-18T01:25:31;95751.78;;;16.79;95.66
49451;BME280;35336;48.400;10.886;2023-09-18T01:25:49;95754.78;;;16.83;95.75
49451;BME280;35336;48.400;10.886;2023-09-18T01:26:05;95751.84;;;16.85;95.73
49451;BME280;35336;48.400;10.886;2023-09-18T01:26:23;95764.22;;;16.86;95.93
49451;BME280;35336;48.400;10.886;2023-09-18T01:26:38;95774.59;;;16.94;95.57
49451;BME280;35336;48.400;10.886;2023-09-18T01:26:55;95765.63;;;16.88;95.36
49451;BME280;35336;48.400;10.886;2023-09-18T01:27:17;95751.22;;;16.77;95.32
49451;BME280;35336;48.400;10.886;2023-09-18T01:27:35;95760.47;;;16.87;95.47
49451;BME280;35336;48.400;10.886;2023-09-18T01:27:53;95770.44;;;16.86;96.28
49451;BME280;35336;48.400;10.886;2023-09-18T01:28:08;95765.31;;;16.85;96.56
49451;BME280;35336;48.400;10.886;2023-09-18T01:28:28;95770.75;;;16.90;96.80
49451;BME280;35336;48.400;10.886;2023-09-18T01:28:43;95775.66;;;16.93;96.74
49451;BME280;35336;48.400;10.886;2023-09-18T01:28:58;95762.06;;;16.82;96.86
49451;BME280;35336;48.400;10.886;2023-09-18T01:29:13;95776.94;;;16.90;97.30
49451;BME280;35336;48.400;10.886;2023-09-18T01:29:29;95750.72;;;16.80;96.98
49451;BME280;35336;48.400;10.886;2023-09-18T01:29:45;95766.69;;;16.87;96.59
49451;BME280;35336;48.400;10.886;2023-09-18T01:30:03;95764.22;;;16.86;96.36
49451;BME280;35336;48.400;10.886;2023-09-18T01:30:21;95752.59;;;16.80;96.29
49451;BME280;35336;48.400;10.886;2023-09-18T01:30:38;95768.31;;;16.88;96.34
49451;BME280;35336;48.400;10.886;2023-09-18T01:30:54;95766.44;;;16.89;96.47
49451;BME280;35336;48.400;10.886;2023-09-18T01:31:09;95757.16;;;16.79;96.25
49451;BME280;35336;48.400;10.886;2023-09-18T01:31:27;95756.63;;;16.77;96.50
49451;BME280;35336;48.400;10.886;2023-09-18T01:31:42;95769.63;;;16.86;96.82